createdAt,value
2018-05-06T00:00:29.516Z,95.10
2018-05-06T00:02:55.899Z,95.20
2018-05-06T00:05:22.274Z,95.20
2018-05-06T00:07:48.585Z,95.30
2018-05-06T00:10:15.039Z,95.30
2018-05-06T00:12:41.387Z,95.30
2018-05-06T00:15:07.820Z,95.30
2018-05-06T00:17:34.085Z,95.40
2018-05-06T00:20:01.149Z,95.10
2018-05-06T00:22:27.481Z,95.10
2018-05-06T00:24:53.808Z,95.00
2018-05-06T00:27:20.132Z,94.90
2018-05-06T00:29:46.481Z,94.80
2018-05-06T00:32:12.788Z,94.70
2018-05-06T00:34:39.133Z,94.70
2018-05-06T00:37:05.493Z,94.50
2018-05-06T00:39:31.825Z,94.40
2018-05-06T00:41:58.165Z,94.40
2018-05-06T00:44:24.522Z,94.40
2018-05-06T00:46:50.866Z,94.30
2018-05-06T00:49:17.239Z,94.30
2018-05-06T00:51:43.571Z,94.20
2018-05-06T00:54:22.258Z,94.20
2018-05-06T00:59:49.344Z,94.50
2018-05-06T01:02:19.661Z,94.50
2018-05-06T01:04:48.100Z,94.60
2018-05-06T01:07:14.456Z,94.40
2018-05-06T01:09:40.836Z,94.50
2018-05-06T01:12:07.152Z,94.60
2018-05-06T01:14:33.482Z,94.50
2018-05-06T01:17:00.543Z,94.40
2018-05-06T01:19:29.981Z,94.30
2018-05-06T01:21:56.304Z,94.40
2018-05-06T01:24:32.966Z,94.40
2018-05-06T01:26:59.276Z,94.50
2018-05-06T01:29:26.391Z,94.70
2018-05-06T01:31:53.520Z,94.70
2018-05-06T01:34:19.860Z,94.70
2018-05-06T01:36:46.313Z,94.80
2018-05-06T01:39:12.692Z,94.70
2018-05-06T01:41:39.084Z,94.60
2018-05-06T01:44:06.161Z,95.10
2018-05-06T01:46:32.520Z,95.10
2018-05-06T01:48:58.869Z,95.00
2018-05-06T01:51:25.250Z,95.30
2018-05-06T01:53:51.591Z,95.30
2018-05-06T01:56:17.970Z,95.40
2018-05-06T01:58:44.351Z,95.50
2018-05-06T02:01:10.714Z,95.60
2018-05-06T02:03:37.078Z,95.60
2018-05-06T02:06:04.224Z,95.70
2018-05-06T02:08:30.565Z,95.70
2018-05-06T02:10:56.917Z,95.70
2018-05-06T02:13:23.230Z,95.80
2018-05-06T02:15:49.604Z,95.90
2018-05-06T02:18:16.022Z,96.00
2018-05-06T02:20:42.345Z,96.00
2018-05-06T02:23:09.441Z,96.10
2018-05-06T02:25:35.744Z,96.10
2018-05-06T02:28:02.089Z,96.10
2018-05-06T02:30:28.461Z,96.10
2018-05-06T02:32:54.786Z,96.10
2018-05-06T02:35:21.863Z,95.90
2018-05-06T02:37:48.981Z,95.90
2018-05-06T02:40:15.333Z,95.90
2018-05-06T02:42:43.143Z,95.50
2018-05-06T02:45:09.497Z,95.50
2018-05-06T02:47:35.785Z,95.40
2018-05-06T02:50:02.226Z,95.20
2018-05-06T02:52:28.581Z,94.90
2018-05-06T02:54:54.898Z,94.90
2018-05-06T02:57:21.222Z,94.90
2018-05-06T02:59:47.627Z,94.90
2018-05-06T03:02:13.961Z,94.60
2018-05-06T03:04:41.054Z,94.70
2018-05-06T03:07:07.471Z,94.70
2018-05-06T03:09:33.789Z,94.70
2018-05-06T03:12:00.077Z,94.60
2018-05-06T03:14:26.381Z,94.40
2018-05-06T03:16:52.709Z,94.30
2018-05-06T03:19:19.043Z,94.20
2018-05-06T03:21:45.399Z,94.50
2018-05-06T03:24:11.698Z,94.20
2018-05-06T03:26:38.763Z,93.80
2018-05-06T03:29:05.157Z,93.80
2018-05-06T03:31:31.473Z,93.50
2018-05-06T03:33:58.580Z,93.20
2018-05-06T03:36:24.869Z,93.20
2018-05-06T03:38:51.946Z,93.10
2018-05-06T03:41:19.227Z,93.10
2018-05-06T03:43:45.556Z,93.00
2018-05-06T03:46:11.843Z,93.00
2018-05-06T03:48:38.897Z,92.90
2018-05-06T03:51:05.937Z,93.00
2018-05-06T03:53:32.331Z,93.30
2018-05-06T03:59:28.637Z,93.00
2018-05-06T04:05:03.608Z,92.50
2018-05-06T04:07:29.969Z,92.40
2018-05-06T04:09:56.707Z,92.40
2018-05-06T04:12:23.049Z,92.30
2018-05-06T04:14:49.371Z,92.10
2018-05-06T04:17:15.682Z,92.10
2018-05-06T04:19:42.041Z,92.10
2018-05-06T04:22:08.399Z,92.10
2018-05-06T04:24:34.729Z,92.00
2018-05-06T04:27:01.060Z,91.80
2018-05-06T04:29:27.421Z,91.90
2018-05-06T04:31:53.789Z,91.90
2018-05-06T04:34:20.164Z,92.10
2018-05-06T04:36:46.495Z,92.00
2018-05-06T04:39:12.824Z,92.00
2018-05-06T04:41:39.150Z,91.90
2018-05-06T04:44:05.479Z,91.60
2018-05-06T04:46:31.875Z,91.40
2018-05-06T04:48:58.251Z,91.30
2018-05-06T04:51:24.565Z,91.30
2018-05-06T04:53:50.920Z,91.20
2018-05-06T04:56:17.239Z,90.90
2018-05-06T04:58:43.595Z,90.80
2018-05-06T05:01:10.006Z,90.90
2018-05-06T05:03:36.326Z,91.00
2018-05-06T05:06:02.669Z,90.90
2018-05-06T05:08:29.740Z,90.90
2018-05-06T05:10:56.088Z,90.90
2018-05-06T05:13:23.169Z,91.00
2018-05-06T05:15:55.076Z,91.00
2018-05-06T05:18:21.900Z,91.00
2018-05-06T05:20:48.348Z,90.90
2018-05-06T05:23:14.676Z,90.20
2018-05-06T05:25:41.037Z,89.20
2018-05-06T05:28:07.373Z,89.70
2018-05-06T05:30:33.729Z,89.20
2018-05-06T05:33:04.050Z,89.20
2018-05-06T05:35:30.392Z,88.70
2018-05-06T05:37:56.794Z,87.40
2018-05-06T05:40:23.267Z,87.90
2018-05-06T05:42:49.640Z,87.70
2018-05-06T05:45:15.987Z,86.90
2018-05-06T05:47:42.453Z,87.00
2018-05-06T05:50:08.765Z,86.20
2018-05-06T05:52:35.171Z,86.20
2018-05-06T05:55:01.474Z,85.80
2018-05-06T05:57:27.804Z,85.60
2018-05-06T05:59:54.198Z,85.60
2018-05-06T06:02:21.271Z,82.90
2018-05-06T06:04:47.605Z,82.80
2018-05-06T06:07:13.990Z,80.50
2018-05-06T06:09:41.129Z,76.90
2018-05-06T06:12:07.637Z,76.90
2018-05-06T06:14:34.006Z,76.60
2018-05-06T06:17:01.100Z,75.50
2018-05-06T06:19:27.477Z,75.30
2018-05-06T06:21:54.612Z,76.20
2018-05-06T06:24:21.119Z,76.10
2018-05-06T06:26:47.449Z,73.60
2018-05-06T06:29:13.862Z,70.60
2018-05-06T06:31:40.337Z,68.40
2018-05-06T06:34:06.715Z,68.40
2018-05-06T06:36:33.844Z,72.30
2018-05-06T06:39:00.409Z,72.30
2018-05-06T06:41:27.061Z,72.20
2018-05-06T06:43:54.670Z,67.30
2018-05-06T06:46:21.105Z,65.30
2018-05-06T06:48:47.477Z,59.10
2018-05-06T06:51:14.869Z,58.80
2018-05-06T06:53:41.378Z,58.80
2018-05-06T06:56:08.297Z,62.00
2018-05-06T06:58:34.725Z,59.40
2018-05-06T07:01:01.099Z,58.70
2018-05-06T07:03:31.394Z,55.70
2018-05-06T07:05:58.754Z,58.00
2018-05-06T07:08:25.426Z,58.00
2018-05-06T07:10:52.079Z,54.40
2018-05-06T07:13:20.854Z,56.40
2018-05-06T07:15:47.655Z,52.80
2018-05-06T07:18:14.921Z,52.40
2018-05-06T07:20:44.671Z,52.40
2018-05-06T07:23:11.154Z,50.10
2018-05-06T07:25:38.337Z,51.60
2018-05-06T07:28:05.060Z,48.70
2018-05-06T07:30:32.532Z,48.30
2018-05-06T07:33:00.442Z,49.40
2018-05-06T07:35:27.478Z,49.40
2018-05-06T07:37:58.353Z,48.50
2018-05-06T07:40:31.995Z,48.10
2018-05-06T07:42:58.869Z,45.70
2018-05-06T07:45:26.938Z,45.90
2018-05-06T07:47:54.346Z,45.90
2018-05-06T07:50:21.148Z,45.30
2018-05-06T07:52:47.844Z,45.00
2018-05-06T07:55:14.292Z,45.00
2018-05-06T07:57:41.373Z,45.20
2018-05-06T08:00:07.795Z,45.20
2018-05-06T08:02:34.144Z,47.40
2018-05-06T08:05:01.115Z,45.20
2018-05-06T08:07:27.584Z,45.80
2018-05-06T08:09:54.045Z,45.40
2018-05-06T08:12:21.349Z,41.60
2018-05-06T08:14:47.678Z,41.60
2018-05-06T08:17:14.572Z,42.90
2018-05-06T08:19:42.102Z,40.80
2018-05-06T08:22:08.817Z,40.60
2018-05-06T08:24:35.181Z,40.10
2018-05-06T08:27:01.685Z,40.50
2018-05-06T08:29:34.334Z,40.40
2018-05-06T08:32:02.314Z,40.00
2018-05-06T08:34:28.871Z,39.50
2018-05-06T08:36:55.563Z,39.60
2018-05-06T08:39:22.652Z,38.30
2018-05-06T08:41:54.741Z,37.20
2018-05-06T08:44:22.449Z,37.80
2018-05-06T08:46:52.947Z,37.70
2018-05-06T08:49:20.129Z,38.10
2018-05-06T08:51:46.471Z,38.00
2018-05-06T08:54:31.581Z,39.30
2018-05-06T08:56:58.362Z,38.50
2018-05-06T08:59:33.095Z,38.70
2018-05-06T09:01:59.712Z,36.80
2018-05-06T09:04:26.358Z,36.00
2018-05-06T09:06:53.435Z,34.90
2018-05-06T09:09:19.751Z,34.90
2018-05-06T09:11:46.243Z,34.10
2018-05-06T09:14:12.658Z,32.90
2018-05-06T09:16:39.029Z,33.70
2018-05-06T09:19:06.089Z,36.40
2018-05-06T09:21:34.613Z,36.40
2018-05-06T09:24:01.032Z,34.40
2018-05-06T09:29:19.217Z,35.00
2018-05-06T09:31:49.837Z,35.80
2018-05-06T09:34:22.355Z,37.40
2018-05-06T09:36:48.798Z,37.60
2018-05-06T09:39:15.156Z,34.10
2018-05-06T09:41:41.588Z,34.20
2018-05-06T09:44:08.695Z,38.50
2018-05-06T09:46:35.021Z,38.50
2018-05-06T09:49:01.362Z,31.50
2018-05-06T09:51:27.697Z,31.40
2018-05-06T09:53:54.050Z,30.40
2018-05-06T09:56:21.128Z,32.20
2018-05-06T09:58:47.448Z,32.10
2018-05-06T10:01:13.784Z,33.30
2018-05-06T10:03:40.822Z,30.40
2018-05-06T10:06:07.872Z,27.90
2018-05-06T10:08:34.936Z,30.80
2018-05-06T10:11:01.256Z,30.80
2018-05-06T10:13:28.318Z,30.00
2018-05-06T10:15:54.668Z,30.00
2018-05-06T10:18:20.949Z,27.20
2018-05-06T10:20:47.256Z,28.50
2018-05-06T10:23:13.544Z,28.10
2018-05-06T10:25:39.848Z,30.00
2018-05-06T10:28:06.228Z,29.80
2018-05-06T10:30:32.560Z,25.40
2018-05-06T10:32:58.838Z,25.90
2018-05-06T10:35:25.164Z,29.30
2018-05-06T10:37:51.447Z,28.50
2018-05-06T10:40:17.763Z,25.60
2018-05-06T10:42:44.061Z,26.60
2018-05-06T10:45:10.370Z,28.00
2018-05-06T10:47:36.701Z,26.30
2018-05-06T10:50:03.045Z,26.10
2018-05-06T10:52:30.417Z,31.60
2018-05-06T10:54:56.745Z,31.60
2018-05-06T10:57:23.043Z,27.30
2018-05-06T10:59:49.335Z,30.30
2018-05-06T11:02:15.629Z,31.30
2018-05-06T11:04:41.968Z,28.00
2018-05-06T11:07:08.272Z,28.80
2018-05-06T11:09:34.542Z,30.00
2018-05-06T11:12:02.336Z,27.70
2018-05-06T11:14:28.644Z,27.70
2018-05-06T11:16:55.660Z,28.50
2018-05-06T11:19:21.980Z,28.40
2018-05-06T11:21:48.308Z,29.80
2018-05-06T11:24:14.643Z,27.50
2018-05-06T11:26:40.941Z,27.50
2018-05-06T11:29:07.239Z,27.40
2018-05-06T11:31:34.318Z,26.30
2018-05-06T11:34:00.624Z,26.20
2018-05-06T11:36:27.648Z,25.10
2018-05-06T11:38:53.962Z,25.00
2018-05-06T11:41:20.268Z,27.40
2018-05-06T11:43:46.611Z,24.90
2018-05-06T11:46:12.944Z,26.40
2018-05-06T11:48:39.308Z,27.80
2018-05-06T11:51:07.056Z,26.40
2018-05-06T11:53:33.361Z,26.40
2018-05-06T11:55:59.685Z,24.40
2018-05-06T11:58:26.054Z,25.90
2018-05-06T12:00:52.393Z,25.80
2018-05-06T12:03:18.708Z,27.10
2018-05-06T12:05:45.017Z,27.30
2018-05-06T12:08:11.336Z,28.70
2018-05-06T12:10:37.656Z,26.80
2018-05-06T12:13:04.021Z,28.30
2018-05-06T12:15:30.350Z,26.60
2018-05-06T12:17:56.678Z,27.20
2018-05-06T12:20:23.001Z,28.20
2018-05-06T12:22:49.324Z,27.60
2018-05-06T12:25:15.827Z,25.50
2018-05-06T12:27:48.857Z,27.60
2018-05-06T12:30:15.163Z,27.60
2018-05-06T12:32:43.473Z,28.10
2018-05-06T12:35:09.838Z,23.60
2018-05-06T12:37:36.127Z,26.50
2018-05-06T12:40:02.498Z,26.00
2018-05-06T12:42:28.924Z,26.40
2018-05-06T12:44:55.232Z,24.60
2018-05-06T12:47:21.577Z,27.40
2018-05-06T12:49:48.018Z,26.80
2018-05-06T12:52:14.581Z,24.70
2018-05-06T12:54:41.653Z,24.20
2018-05-06T12:57:08.000Z,24.20
2018-05-06T12:59:34.361Z,26.20
2018-05-06T13:02:01.460Z,28.10
2018-05-06T13:04:27.829Z,28.10
2018-05-06T13:06:55.139Z,26.40
2018-05-06T13:09:22.202Z,24.30
2018-05-06T13:11:48.548Z,24.20
2018-05-06T13:14:18.793Z,26.00
2018-05-06T13:17:04.675Z,25.90
2018-05-06T13:19:43.083Z,25.00
2018-05-06T13:22:13.526Z,25.00
2018-05-06T13:24:50.692Z,26.10
2018-05-06T13:27:24.187Z,26.10
2018-05-06T13:29:51.654Z,25.90
2018-05-06T13:32:23.158Z,25.50
2018-05-06T13:34:50.262Z,24.70
2018-05-06T13:37:16.573Z,24.70
2018-05-06T13:39:48.865Z,25.00
2018-05-06T13:42:15.202Z,26.80
2018-05-06T13:45:06.385Z,27.60
2018-05-06T13:47:32.733Z,28.40
2018-05-06T13:49:59.120Z,25.80
2018-05-06T13:52:27.530Z,27.90
2018-05-06T13:54:53.824Z,27.90
2018-05-06T13:57:21.980Z,27.50
2018-05-06T13:59:49.074Z,26.40
2018-05-06T14:02:15.382Z,26.40
2018-05-06T14:04:41.708Z,27.10
2018-05-06T14:07:08.769Z,28.20
2018-05-06T14:09:35.079Z,28.20
2018-05-06T14:12:01.692Z,25.70
2018-05-06T14:14:28.124Z,26.80
2018-05-06T14:16:55.958Z,27.80
2018-05-06T14:19:37.804Z,27.80
2018-05-06T14:22:04.248Z,29.10
2018-05-06T14:24:43.889Z,26.60
2018-05-06T14:27:11.009Z,26.00
2018-05-06T14:29:57.187Z,26.00
2018-05-06T14:32:23.533Z,25.40
2018-05-06T14:34:50.684Z,27.20
2018-05-06T14:37:17.012Z,27.10
2018-05-06T14:39:43.324Z,27.50
2018-05-06T14:42:09.686Z,29.00
2018-05-06T14:44:36.196Z,27.30
2018-05-06T14:50:13.844Z,25.80
2018-05-06T14:52:40.198Z,25.90
2018-05-06T14:55:07.900Z,29.00
2018-05-06T14:57:34.208Z,28.90
2018-05-06T15:00:01.318Z,26.00
2018-05-06T15:02:27.736Z,26.00
2018-05-06T15:04:54.085Z,27.00
2018-05-06T15:07:21.208Z,27.20
2018-05-06T15:09:47.552Z,27.20
2018-05-06T15:12:13.932Z,27.40
2018-05-06T15:14:40.996Z,26.80
2018-05-06T15:17:07.425Z,26.70
2018-05-06T15:19:33.736Z,28.80
2018-05-06T15:22:00.832Z,27.50
2018-05-06T15:24:27.164Z,27.50
2018-05-06T15:26:55.568Z,27.60
2018-05-06T15:29:21.962Z,28.00
2018-05-06T15:31:48.299Z,28.10
2018-05-06T15:34:14.687Z,28.30
2018-05-06T15:36:43.044Z,26.90
2018-05-06T15:39:09.372Z,26.50
2018-05-06T15:41:35.729Z,25.80
2018-05-06T15:46:59.068Z,25.90
2018-05-06T15:49:25.398Z,29.00
2018-05-06T15:51:51.837Z,28.50
2018-05-06T15:54:18.188Z,27.10
2018-05-06T15:56:44.537Z,26.80
2018-05-06T15:59:10.836Z,25.80
2018-05-06T16:01:38.218Z,26.10
2018-05-06T16:04:11.037Z,25.80
2018-05-06T16:06:37.544Z,26.30
2018-05-06T16:09:04.721Z,26.50
2018-05-06T16:11:32.052Z,28.60
2018-05-06T16:13:59.149Z,26.70
2018-05-06T16:16:25.500Z,26.70
2018-05-06T16:18:51.923Z,26.50
2018-05-06T16:21:18.301Z,28.20
2018-05-06T16:23:45.395Z,26.90
2018-05-06T16:26:11.780Z,26.90
2018-05-06T16:28:38.122Z,26.40
2018-05-06T16:31:05.345Z,27.50
2018-05-06T16:33:31.769Z,27.50
2018-05-06T16:35:58.181Z,27.80
2018-05-06T16:38:24.505Z,28.40
2018-05-06T16:40:50.895Z,28.50
2018-05-06T16:43:18.004Z,29.10
2018-05-06T16:45:44.358Z,29.10
2018-05-06T16:48:10.715Z,28.70
2018-05-06T16:50:37.162Z,28.70
2018-05-06T16:53:03.571Z,28.90
2018-05-06T16:55:30.715Z,29.50
2018-05-06T16:57:57.314Z,29.50
2018-05-06T17:00:23.790Z,32.00
2018-05-06T17:02:50.153Z,30.70
2018-05-06T17:05:16.693Z,32.40
2018-05-06T17:07:43.853Z,30.20
2018-05-06T17:10:10.385Z,30.10
2018-05-06T17:12:37.493Z,31.00
2018-05-06T17:15:03.940Z,31.00
2018-05-06T17:17:30.309Z,31.00
2018-05-06T17:19:56.756Z,32.60
2018-05-06T17:22:23.224Z,33.00
2018-05-06T17:24:49.585Z,33.50
2018-05-06T17:27:16.752Z,33.30
2018-05-06T17:29:43.173Z,33.30
2018-05-06T17:32:10.273Z,31.60
2018-05-06T17:34:36.734Z,31.60
2018-05-06T17:37:03.226Z,33.40
2018-05-06T17:39:29.597Z,32.70
2018-05-06T17:41:56.273Z,33.80
2018-05-06T17:44:36.120Z,33.70
2018-05-06T17:47:04.441Z,32.90
2018-05-06T17:49:31.090Z,32.80
2018-05-06T17:51:57.478Z,33.30
2018-05-06T17:54:23.952Z,33.80
2018-05-06T17:56:50.379Z,34.80
2018-05-06T17:59:16.855Z,34.40
2018-05-06T18:01:44.291Z,35.00
2018-05-06T18:04:10.646Z,34.90
2018-05-06T18:06:37.133Z,34.50
2018-05-06T18:09:03.502Z,34.60
2018-05-06T18:11:30.103Z,35.90
2018-05-06T18:13:56.502Z,35.80
2018-05-06T18:16:23.662Z,36.30
2018-05-06T18:18:50.162Z,36.20
2018-05-06T18:21:16.529Z,36.40
2018-05-06T18:23:43.071Z,36.60
2018-05-06T18:26:09.533Z,37.40
2018-05-06T18:28:38.083Z,37.70
2018-05-06T18:31:04.630Z,37.30
2018-05-06T18:33:31.304Z,37.70
2018-05-06T18:35:59.500Z,38.30
2018-05-06T18:38:26.216Z,38.20
2018-05-06T18:40:52.664Z,38.40
2018-05-06T18:43:19.147Z,39.30
2018-05-06T18:45:45.638Z,39.60
2018-05-06T18:48:12.042Z,40.60
2018-05-06T18:50:38.521Z,39.50
2018-05-06T18:53:04.960Z,39.70
2018-05-06T18:55:31.430Z,39.70
2018-05-06T18:57:58.160Z,39.50
2018-05-06T19:00:24.756Z,39.60
2018-05-06T19:02:51.159Z,40.80
2018-05-06T19:05:17.553Z,40.50
2018-05-06T19:07:44.747Z,41.40
2018-05-06T19:10:11.218Z,41.20
2018-05-06T19:12:38.418Z,42.20
2018-05-06T19:15:04.853Z,42.00
2018-05-06T19:17:31.278Z,42.50
2018-05-06T19:19:58.351Z,42.80
2018-05-06T19:22:25.877Z,42.70
2018-05-06T19:24:52.339Z,42.50
2018-05-06T19:27:18.788Z,43.30
2018-05-06T19:29:45.176Z,43.20
2018-05-06T19:32:11.664Z,43.00
2018-05-06T19:34:38.003Z,42.80
2018-05-06T19:37:04.387Z,43.00
2018-05-06T19:39:31.473Z,43.30
2018-05-06T19:41:57.911Z,43.30
2018-05-06T19:44:24.308Z,43.90
2018-05-06T19:46:50.747Z,44.40
2018-05-06T19:49:17.175Z,44.50
2018-05-06T19:51:43.555Z,44.50
2018-05-06T19:54:09.922Z,45.20
2018-05-06T19:56:37.233Z,45.40
2018-05-06T19:59:03.638Z,45.40
2018-05-06T20:01:30.825Z,45.20
2018-05-06T20:03:57.490Z,45.10
2018-05-06T20:06:24.100Z,44.70
2018-05-06T20:08:50.579Z,44.80
2018-05-06T20:11:17.807Z,45.00
2018-05-06T20:13:44.998Z,44.90
2018-05-06T20:16:11.370Z,44.70
2018-05-06T20:18:37.745Z,45.40
2018-05-06T20:21:04.137Z,45.40
2018-05-06T20:23:30.679Z,45.00
2018-05-06T20:25:57.058Z,45.30
2018-05-06T20:28:24.157Z,45.30
2018-05-06T20:30:50.681Z,45.30
2018-05-06T20:33:17.017Z,45.90
2018-05-06T20:35:43.437Z,45.70
2018-05-06T20:38:10.598Z,45.90
2018-05-06T20:40:37.216Z,45.90
2018-05-06T20:43:03.666Z,46.20
2018-05-06T20:45:30.153Z,46.60
2018-05-06T20:47:56.954Z,46.90
2018-05-06T20:50:23.289Z,47.20
2018-05-06T20:52:49.671Z,47.30
2018-05-06T20:55:16.836Z,47.70
2018-05-06T20:57:43.230Z,47.70
2018-05-06T21:00:09.708Z,48.00
2018-05-06T21:02:36.786Z,47.90
2018-05-06T21:05:03.144Z,47.90
2018-05-06T21:07:29.640Z,48.00
2018-05-06T21:09:56.031Z,48.20
2018-05-06T21:12:23.368Z,48.80
2018-05-06T21:14:49.705Z,48.80
2018-05-06T21:17:16.172Z,48.80
2018-05-06T21:19:43.476Z,49.50
2018-05-06T21:22:10.848Z,49.40
2018-05-06T21:24:37.229Z,49.40
2018-05-06T21:27:03.553Z,49.80
2018-05-06T21:29:30.635Z,50.40
2018-05-06T21:31:56.990Z,50.40
2018-05-06T21:34:23.440Z,50.50
2018-05-06T21:36:49.878Z,50.70
2018-05-06T21:39:16.891Z,51.40
2018-05-06T21:41:43.260Z,51.40
2018-05-06T21:44:09.565Z,51.30
2018-05-06T21:46:35.854Z,51.50
2018-05-06T21:49:02.937Z,51.90
2018-05-06T21:51:29.336Z,51.90
2018-05-06T21:53:55.709Z,52.10
2018-05-06T21:56:22.054Z,52.40
2018-05-06T21:58:48.385Z,52.40
2018-05-06T22:01:19.590Z,52.60
2018-05-06T22:03:45.981Z,52.90
2018-05-06T22:06:12.290Z,53.20
2018-05-06T22:08:38.618Z,53.10
2018-05-06T22:11:04.958Z,53.10
2018-05-06T22:13:31.301Z,53.10
2018-05-06T22:15:58.058Z,53.20
2018-05-06T22:18:25.144Z,53.30
2018-05-06T22:20:51.527Z,53.10
2018-05-06T22:23:18.667Z,53.20
2018-05-06T22:25:45.137Z,53.10
2018-05-06T22:28:12.206Z,53.20
2018-05-06T22:30:38.631Z,53.10
2018-05-06T22:33:06.558Z,53.90
2018-05-06T22:35:32.917Z,53.90
2018-05-06T22:37:59.375Z,54.10
2018-05-06T22:40:25.736Z,54.20
2018-05-06T22:42:52.087Z,54.50
2018-05-06T22:45:18.564Z,54.50
2018-05-06T22:47:45.684Z,55.10
2018-05-06T22:50:12.124Z,55.00
2018-05-06T22:52:38.637Z,55.10
2018-05-06T22:55:05.028Z,55.40
2018-05-06T22:57:31.373Z,55.60
2018-05-06T22:59:57.703Z,56.00
2018-05-06T23:02:24.077Z,55.80
2018-05-06T23:04:50.389Z,56.70
2018-05-06T23:07:16.729Z,56.30
2018-05-06T23:09:43.084Z,56.60
2018-05-06T23:12:10.230Z,56.90
2018-05-06T23:14:38.408Z,57.30
2018-05-06T23:17:04.808Z,57.00
2018-05-06T23:19:31.131Z,57.10
2018-05-06T23:21:57.484Z,57.20
2018-05-06T23:24:23.838Z,57.20
2018-05-06T23:26:50.143Z,57.60
2018-05-06T23:29:16.521Z,57.60
2018-05-06T23:31:42.797Z,57.90
2018-05-06T23:34:09.313Z,58.20
2018-05-06T23:36:35.636Z,58.50
2018-05-06T23:39:02.725Z,58.90
2018-05-06T23:41:29.037Z,58.80
2018-05-06T23:43:55.351Z,58.90
2018-05-06T23:46:21.661Z,59.10
2018-05-06T23:48:48.728Z,59.30
2018-05-06T23:51:15.761Z,59.60
2018-05-06T23:53:42.847Z,59.60
2018-05-06T23:56:09.209Z,59.60
2018-05-06T23:58:35.563Z,59.60
